Terminal Aerodrome Forecast
Issued by NWS

Home | Current Version | Previous Version | Text Only | Print | Product List | Glossary On
Versions: 1 2 3 4 5 6 7 8 9 10 11 12 13 14 15 16
000
FTUS42 KFFC 180520
TAFRYY
TAF
KRYY 180520Z 1806/1906 06004KT 6SM -RA BKN004 OVC020
     FM180900 03004KT 3SM -DZ BR OVC004
     FM181400 07007KT P6SM BKN008
     FM181800 11007KT P6SM BKN025 PROB30 1821/1824 4SM TSRA SCT025CB
      BKN035
     FM190300 12004KT P6SM -RA BKN015
      AMD NOT SKED TIL 181200=

USA.gov is the U.S. government's official web portal to all federal, state and local government web resources and services.